createdAt,value
2023-01-19T00:01:47.531Z,96789.25
2023-01-19T00:04:16.974Z,96789.88
2023-01-19T00:06:46.311Z,96787.47
2023-01-19T00:09:15.626Z,96781.28
2023-01-19T00:11:44.883Z,96780.31
2023-01-19T00:14:14.068Z,96780.88
2023-01-19T00:16:43.266Z,96772.13
2023-01-19T00:19:12.596Z,96762.19
2023-01-19T00:21:41.869Z,96761.19
2023-01-19T00:24:11.608Z,96760.56
2023-01-19T00:26:42.957Z,96762.19
2023-01-19T00:29:14.114Z,96763.97
2023-01-19T00:31:43.451Z,96756.59
2023-01-19T00:34:12.702Z,96766.38
2023-01-19T00:36:42.618Z,96757.81
2023-01-19T00:39:11.815Z,96761.41
2023-01-19T00:42:13.003Z,96753.84
2023-01-19T00:44:42.263Z,96749.47
2023-01-19T00:47:11.476Z,96748.66
2023-01-19T00:49:40.803Z,96731.59
2023-01-19T00:52:10.908Z,96741.94
2023-01-19T00:54:40.120Z,96737.75
2023-01-19T00:57:09.334Z,96744.53
2023-01-19T00:59:38.542Z,96740.34
2023-01-19T01:02:07.960Z,96740.34
2023-01-19T01:04:38.316Z,96735.53
2023-01-19T01:07:07.770Z,96747.47
2023-01-19T01:09:37.287Z,96741.94
2023-01-19T01:12:06.873Z,96731.59
2023-01-19T01:14:36.103Z,96725.22
2023-01-19T01:17:05.859Z,96728.41
2023-01-19T01:19:35.167Z,96723.81
2023-01-19T01:22:04.922Z,96717.06
2023-01-19T01:24:34.168Z,96719.47
2023-01-19T01:27:03.594Z,96720.81
2023-01-19T01:29:35.386Z,96712.66
2023-01-19T01:32:04.726Z,96714.47
2023-01-19T01:34:34.669Z,96710.50
2023-01-19T01:37:03.959Z,96717.63
2023-01-19T01:39:33.234Z,96712.66
2023-01-19T01:42:20.301Z,96718.00
2023-01-19T01:44:54.415Z,96713.03
2023-01-19T01:47:44.381Z,96712.44
2023-01-19T01:50:27.950Z,96699.50
2023-01-19T01:53:08.501Z,96693.75
2023-01-19T01:55:45.458Z,96703.91
2023-01-19T01:58:16.922Z,96690.56
2023-01-19T02:01:04.839Z,96691.16
2023-01-19T02:03:34.605Z,96698.72
2023-01-19T02:06:07.742Z,96697.72
2023-01-19T02:09:28.919Z,96697.72
2023-01-19T02:12:17.172Z,96689.00
2023-01-19T02:14:46.463Z,96701.72
2023-01-19T02:17:15.797Z,96698.38
2023-01-19T02:20:05.739Z,96702.94
2023-01-19T02:22:44.336Z,96708.09
2023-01-19T02:25:14.183Z,96707.91
2023-01-19T02:27:44.119Z,96702.13
2023-01-19T02:30:16.858Z,96704.13
2023-01-19T02:32:46.243Z,96708.53
2023-01-19T02:35:16.653Z,96714.88
2023-01-19T02:37:46.889Z,96711.28
2023-01-19T02:40:20.315Z,96709.09
2023-01-19T02:42:53.146Z,96725.22
2023-01-19T02:45:24.294Z,96726.41
2023-01-19T02:47:53.704Z,96727.22
2023-01-19T02:50:50.593Z,96731.97
2023-01-19T02:53:42.769Z,96732.78
2023-01-19T02:56:27.028Z,96743.13
2023-01-19T02:59:27.210Z,96746.13
2023-01-19T03:02:26.763Z,96749.91
2023-01-19T03:05:18.263Z,96741.13
2023-01-19T03:08:12.049Z,96727.44
2023-01-19T03:10:47.098Z,96719.09
2023-01-19T03:13:28.252Z,96724.44
2023-01-19T03:16:14.682Z,96723.25
2023-01-19T03:18:51.969Z,96719.25
2023-01-19T03:21:27.280Z,96718.88
2023-01-19T03:24:03.239Z,96722.44
2023-01-19T03:26:40.485Z,96728.03
2023-01-19T03:29:13.633Z,96712.13
2023-01-19T03:31:50.022Z,96713.34
2023-01-19T03:34:23.986Z,96701.63
2023-01-19T03:36:58.943Z,96693.63
2023-01-19T03:39:29.276Z,96693.84
2023-01-19T03:42:18.149Z,96703.38
2023-01-19T03:44:50.674Z,96709.53
2023-01-19T03:47:20.598Z,96712.50
2023-01-19T03:49:53.008Z,96721.66
2023-01-19T03:52:33.648Z,96722.66
2023-01-19T03:55:05.775Z,96732.19
2023-01-19T03:57:35.134Z,96734.97
2023-01-19T04:00:05.362Z,96745.53
2023-01-19T04:02:41.222Z,96727.63
2023-01-19T04:05:10.511Z,96733.22
2023-01-19T04:07:39.719Z,96726.06
2023-01-19T04:10:12.783Z,96709.34
2023-01-19T04:12:42.104Z,96688.69
2023-01-19T04:15:12.273Z,96672.75
2023-01-19T04:17:42.249Z,96659.66
2023-01-19T04:20:11.751Z,96649.31
2023-01-19T04:22:40.983Z,96639.00
2023-01-19T04:25:10.922Z,96644.53
2023-01-19T04:27:41.759Z,96638.19
2023-01-19T04:30:11.841Z,96653.25
2023-01-19T04:32:41.109Z,96658.66
2023-01-19T04:35:10.478Z,96657.66
2023-01-19T04:37:40.200Z,96662.81
2023-01-19T04:40:10.367Z,96662.84
2023-01-19T04:42:44.096Z,96662.63
2023-01-19T04:45:14.967Z,96668.78
2023-01-19T04:47:44.236Z,96650.09
2023-01-19T04:50:13.448Z,96646.94
2023-01-19T04:52:42.712Z,96656.88
2023-01-19T04:55:12.667Z,96649.72
2023-01-19T04:57:42.350Z,96648.53
2023-01-19T05:00:12.743Z,96646.16
2023-01-19T05:02:44.185Z,96634.22
2023-01-19T05:05:14.118Z,96625.06
2023-01-19T05:07:43.548Z,96627.63
2023-01-19T05:10:13.397Z,96617.13
2023-01-19T05:12:42.794Z,96617.91
2023-01-19T05:15:12.238Z,96635.38
2023-01-19T05:17:42.093Z,96620.69
2023-01-19T05:20:15.950Z,96622.47
2023-01-19T05:22:53.414Z,96624.25
2023-01-19T05:25:22.608Z,96621.47
2023-01-19T05:27:51.841Z,96597.66
2023-01-19T05:30:21.425Z,96580.34
2023-01-19T05:32:51.045Z,96588.09
2023-01-19T05:35:31.320Z,96615.16
2023-01-19T05:38:04.734Z,96609.59
2023-01-19T05:40:33.953Z,96628.84
2023-01-19T05:43:05.297Z,96665.22
2023-01-19T05:45:34.934Z,96640.97
2023-01-19T05:48:04.817Z,96630.22
2023-01-19T05:50:34.901Z,96654.06
2023-01-19T05:53:04.431Z,96648.31
2023-01-19T05:55:33.752Z,96654.06
2023-01-19T05:58:02.964Z,96639.38
2023-01-19T06:00:32.260Z,96668.19
2023-01-19T06:03:02.671Z,96674.97
2023-01-19T06:05:32.584Z,96673.94
2023-01-19T06:08:02.308Z,96671.97
2023-01-19T06:10:31.588Z,96688.69
2023-01-19T06:13:01.252Z,96699.41
2023-01-19T06:15:30.965Z,96696.63
2023-01-19T06:18:01.434Z,96697.44
2023-01-19T06:20:30.696Z,96702.97
2023-01-19T06:23:00.230Z,96696.63
2023-01-19T06:25:30.203Z,96704.97
2023-01-19T06:27:59.614Z,96703.19
2023-01-19T06:30:29.122Z,96695.00
2023-01-19T06:32:58.651Z,96687.06
2023-01-19T06:35:29.495Z,96679.31
2023-01-19T06:37:58.777Z,96672.53
2023-01-19T06:40:28.045Z,96673.34
2023-01-19T06:42:57.216Z,96682.91
2023-01-19T06:45:26.434Z,96677.94
2023-01-19T06:47:55.693Z,96668.41
2023-01-19T06:50:25.016Z,96666.03
2023-01-19T06:52:54.382Z,96655.25
2023-01-19T06:55:23.805Z,96650.69
2023-01-19T06:58:00.633Z,96668.00
2023-01-19T07:00:30.434Z,96668.59
2023-01-19T07:03:00.139Z,96671.19
2023-01-19T07:05:29.611Z,96682.50
2023-01-19T07:07:59.313Z,96678.72
2023-01-19T07:11:22.212Z,96665.41
2023-01-19T07:13:17.966Z,96679.31
2023-01-19T07:15:47.201Z,96687.88
2023-01-19T07:18:16.389Z,96669.75
2023-01-19T07:20:46.934Z,96679.28
2023-01-19T07:23:16.813Z,96697.19
2023-01-19T07:25:46.814Z,96698.75
2023-01-19T07:28:16.806Z,96692.00
2023-01-19T07:30:46.667Z,96703.94
2023-01-19T07:33:15.968Z,96697.75
2023-01-19T07:35:52.669Z,96704.13
2023-01-19T07:38:22.867Z,96689.00
2023-01-19T07:40:52.250Z,96690.59
2023-01-19T07:43:21.526Z,96685.38
2023-01-19T07:45:50.761Z,96677.84
2023-01-19T07:48:19.956Z,96667.25
2023-01-19T07:50:49.248Z,96676.97
2023-01-19T07:53:18.506Z,96668.63
2023-01-19T07:55:54.507Z,96649.06
2023-01-19T07:58:25.077Z,96651.84
2023-01-19T08:00:54.664Z,96646.69
2023-01-19T08:03:24.037Z,96648.28
2023-01-19T08:05:53.723Z,96663.81
2023-01-19T08:08:22.977Z,96683.31
2023-01-19T08:10:52.583Z,96671.38
2023-01-19T08:13:22.270Z,96675.94
2023-01-19T08:15:53.908Z,96683.88
2023-01-19T08:18:23.240Z,96684.69
2023-01-19T08:20:52.531Z,96698.00
2023-01-19T08:23:21.719Z,96681.50
2023-01-19T08:25:51.145Z,96670.53
2023-01-19T08:28:21.214Z,96672.47
2023-01-19T08:30:56.359Z,96672.44
2023-01-19T08:33:25.677Z,96684.34
2023-01-19T08:35:55.050Z,96676.34
2023-01-19T08:38:24.857Z,96661.75
2023-01-19T08:40:54.093Z,96673.44
2023-01-19T08:43:23.307Z,96685.72
2023-01-19T08:45:53.540Z,96673.94
2023-01-19T08:48:23.707Z,96697.44
2023-01-19T08:50:53.633Z,96698.81
2023-01-19T08:53:26.191Z,96699.63
2023-01-19T08:55:57.678Z,96702.47
2023-01-19T08:58:27.228Z,96695.97
2023-01-19T09:00:56.649Z,96696.47
2023-01-19T09:03:25.948Z,96700.97
2023-01-19T09:05:55.229Z,96698.16
2023-01-19T09:08:24.481Z,96699.13
2023-01-19T09:10:53.810Z,96700.47
2023-01-19T09:13:23.078Z,96689.69
2023-01-19T09:15:52.690Z,96696.47
2023-01-19T09:18:22.879Z,96682.19
2023-01-19T09:20:52.137Z,96681.28
2023-01-19T09:23:22.762Z,96683.44
2023-01-19T09:26:01.639Z,96674.28
2023-01-19T09:28:31.252Z,96682.41
2023-01-19T09:31:05.584Z,96679.97
2023-01-19T09:33:35.840Z,96679.88
2023-01-19T09:36:05.464Z,96687.91
2023-01-19T09:38:34.818Z,96697.63
2023-01-19T09:41:04.614Z,96694.53
2023-01-19T09:43:44.748Z,96690.13
2023-01-19T09:46:25.300Z,96690.09
2023-01-19T09:49:04.834Z,96690.91
2023-01-19T09:51:41.231Z,96687.88
2023-01-19T09:54:17.054Z,96679.38
2023-01-19T09:56:52.373Z,96671.06
2023-01-19T09:59:28.836Z,96668.00
2023-01-19T10:02:06.804Z,96665.91
2023-01-19T10:04:46.534Z,96649.91
2023-01-19T10:08:03.919Z,96661.41
2023-01-19T10:10:35.529Z,96662.44
2023-01-19T10:13:36.638Z,96666.59
2023-01-19T10:16:59.930Z,96659.06
2023-01-19T10:19:47.605Z,96656.19
2023-01-19T10:22:23.285Z,96659.66
2023-01-19T10:25:00.589Z,96658.88
2023-01-19T10:27:34.587Z,96653.69
2023-01-19T10:30:07.335Z,96649.94
2023-01-19T10:32:39.186Z,96657.91
2023-01-19T10:35:26.769Z,96657.75
2023-01-19T10:38:01.767Z,96644.75
2023-01-19T10:40:39.991Z,96644.75
2023-01-19T10:43:44.391Z,96647.50
2023-01-19T10:46:42.851Z,96656.31
2023-01-19T10:49:28.529Z,96655.34
2023-01-19T10:52:00.090Z,96662.28
2023-01-19T10:54:33.366Z,96662.72
2023-01-19T10:57:10.139Z,96656.59
2023-01-19T10:59:45.323Z,96653.41
2023-01-19T11:02:30.818Z,96664.38
2023-01-19T11:05:22.144Z,96656.59
2023-01-19T11:07:51.593Z,96658.19
2023-01-19T11:10:26.579Z,96654.00
2023-01-19T11:13:12.747Z,96660.69
2023-01-19T11:15:52.126Z,96652.72
2023-01-19T11:18:30.691Z,96650.69
2023-01-19T11:21:06.478Z,96648.88
2023-01-19T11:23:46.516Z,96661.91
2023-01-19T11:26:49.469Z,96658.47
2023-01-19T11:29:26.126Z,96670.53
2023-01-19T11:32:11.437Z,96674.56
2023-01-19T11:34:40.723Z,96672.81
2023-01-19T11:37:18.780Z,96675.72
2023-01-19T11:39:58.753Z,96680.91
2023-01-19T11:42:33.652Z,96670.91
2023-01-19T11:45:21.063Z,96673.06
2023-01-19T11:47:52.505Z,96676.09
2023-01-19T11:50:50.040Z,96679.03
2023-01-19T11:53:28.277Z,96683.50
2023-01-19T11:56:09.048Z,96688.53
2023-01-19T11:58:43.373Z,96691.63
2023-01-19T12:01:39.981Z,96692.69
2023-01-19T12:04:19.340Z,96692.09
2023-01-19T12:06:55.573Z,96694.09
2023-01-19T12:09:31.227Z,96696.75
2023-01-19T12:12:08.977Z,96699.84
2023-01-19T12:15:00.645Z,96709.25
2023-01-19T12:17:37.135Z,96705.91
2023-01-19T12:20:31.477Z,96709.75
2023-01-19T12:23:30.252Z,96719.56
2023-01-19T12:26:24.412Z,96721.59
2023-01-19T12:29:03.426Z,96722.81
2023-01-19T12:31:33.706Z,96721.47
2023-01-19T12:34:26.106Z,96726.03
2023-01-19T12:37:04.030Z,96733.44
2023-01-19T12:39:35.458Z,96736.47
2023-01-19T12:42:20.454Z,96737.28
2023-01-19T12:45:14.662Z,96739.09
2023-01-19T12:47:56.604Z,96743.47
2023-01-19T12:50:26.994Z,96744.28
2023-01-19T12:53:00.524Z,96744.69
2023-01-19T12:55:38.665Z,96749.84
2023-01-19T12:58:21.666Z,96747.84
2023-01-19T13:01:21.111Z,96757.19
2023-01-19T13:04:09.297Z,96754.63
2023-01-19T13:06:48.050Z,96759.78
2023-01-19T13:09:34.105Z,96767.31
2023-01-19T13:12:25.370Z,96772.50
2023-01-19T13:15:35.247Z,96774.13
2023-01-19T13:18:05.294Z,96784.47
2023-01-19T13:21:00.230Z,96786.47
2023-01-19T13:23:52.465Z,96788.22
2023-01-19T13:26:24.897Z,96780.84
2023-01-19T13:29:03.240Z,96785.22
2023-01-19T13:31:43.277Z,96789.44
2023-01-19T13:34:18.410Z,96795.81
2023-01-19T13:36:56.149Z,96800.00
2023-01-19T13:39:44.232Z,96805.19
2023-01-19T13:42:25.930Z,96807.38
2023-01-19T13:45:05.640Z,96808.56
2023-01-19T13:47:47.597Z,96808.78
2023-01-19T13:50:33.574Z,96808.16
2023-01-19T13:53:04.749Z,96805.38
2023-01-19T13:55:34.135Z,96801.97
2023-01-19T13:58:03.436Z,96806.53
2023-01-19T14:00:33.465Z,96807.09
2023-01-19T14:03:21.455Z,96819.06
2023-01-19T14:05:54.138Z,96817.44
2023-01-19T14:08:25.669Z,96822.38
2023-01-19T14:10:56.400Z,96822.41
2023-01-19T14:13:37.448Z,96815.78
2023-01-19T14:16:15.252Z,96820.19
2023-01-19T14:18:44.706Z,96824.34
2023-01-19T14:21:16.044Z,96826.94
2023-01-19T14:24:11.476Z,96835.72
2023-01-19T14:26:48.305Z,96839.50
2023-01-19T14:29:40.334Z,96843.53
2023-01-19T14:32:25.213Z,96845.50
2023-01-19T14:35:04.638Z,96844.91
2023-01-19T14:37:37.954Z,96844.72
2023-01-19T14:40:13.252Z,96855.09
2023-01-19T14:43:00.236Z,96856.69
2023-01-19T14:45:38.023Z,96866.63
2023-01-19T14:48:19.302Z,96866.22
2023-01-19T14:51:02.838Z,96864.25
2023-01-19T14:53:37.878Z,96867.63
2023-01-19T14:56:07.601Z,96871.25
2023-01-19T14:58:37.027Z,96868.06
2023-01-19T15:01:06.677Z,96880.00
2023-01-19T15:03:44.853Z,96883.56
2023-01-19T15:06:21.424Z,96881.97
2023-01-19T15:08:53.347Z,96878.19
2023-01-19T15:11:33.351Z,96878.97
2023-01-19T15:14:04.494Z,96880.78
2023-01-19T15:16:35.031Z,96886.53
2023-01-19T15:19:04.593Z,96889.53
2023-01-19T15:21:34.061Z,96887.16
2023-01-19T15:24:03.689Z,96890.34
2023-01-19T15:26:33.065Z,96893.91
2023-01-19T15:29:02.466Z,96896.50
2023-01-19T15:31:31.893Z,96897.88
2023-01-19T15:34:01.122Z,96907.47
2023-01-19T15:36:30.421Z,96910.63
2023-01-19T15:38:59.816Z,96911.63
2023-01-19T15:41:30.248Z,96911.63
2023-01-19T15:43:59.637Z,96902.84
2023-01-19T15:46:28.929Z,96907.66
2023-01-19T15:48:58.412Z,96913.63
2023-01-19T15:51:28.182Z,96920.97
2023-01-19T15:53:57.532Z,96924.16
2023-01-19T15:56:31.575Z,96916.59
2023-01-19T15:59:02.102Z,96929.16
2023-01-19T16:01:32.755Z,96922.56
2023-01-19T16:04:09.562Z,96927.34
2023-01-19T16:06:38.978Z,96940.09
2023-01-19T16:09:08.259Z,96940.28
2023-01-19T16:11:38.417Z,96939.31
2023-01-19T16:14:07.611Z,96943.88
2023-01-19T16:16:36.959Z,96948.84
2023-01-19T16:19:06.614Z,96940.88
2023-01-19T16:21:36.071Z,96950.22
2023-01-19T16:24:06.056Z,96954.41
2023-01-19T16:26:36.787Z,96946.66
2023-01-19T16:29:09.954Z,96952.03
2023-01-19T16:31:42.417Z,96947.66
2023-01-19T16:34:11.897Z,96957.63
2023-01-19T16:36:42.636Z,96956.81
2023-01-19T16:39:14.966Z,96957.19
2023-01-19T16:41:45.834Z,96967.97
2023-01-19T16:44:16.933Z,96966.97
2023-01-19T16:46:49.746Z,96972.34
2023-01-19T16:49:28.306Z,96961.19
2023-01-19T16:51:58.695Z,96968.94
2023-01-19T16:54:29.299Z,96970.13
2023-01-19T16:56:58.899Z,96970.31
2023-01-19T16:59:29.351Z,96964.53
2023-01-19T17:01:58.795Z,96969.09
2023-01-19T17:04:28.425Z,96961.16
2023-01-19T17:06:57.649Z,96956.75
2023-01-19T17:09:26.836Z,96960.72
2023-01-19T17:11:56.125Z,96962.69
2023-01-19T17:14:25.499Z,96976.63
2023-01-19T17:16:54.802Z,96983.81
2023-01-19T17:19:24.210Z,96992.97
2023-01-19T17:21:53.467Z,97013.06
2023-01-19T17:24:22.725Z,97020.44
2023-01-19T17:26:52.194Z,97025.19
2023-01-19T17:29:21.471Z,97038.91
2023-01-19T17:31:53.683Z,97032.69
2023-01-19T17:34:23.071Z,97046.22
2023-01-19T17:36:52.318Z,97051.22
2023-01-19T17:39:21.515Z,97055.16
2023-01-19T17:41:50.768Z,97060.94
2023-01-19T17:44:19.969Z,97055.41
2023-01-19T17:46:49.464Z,97063.78
2023-01-19T17:49:18.767Z,97067.72
2023-01-19T17:51:51.949Z,97073.69
2023-01-19T17:54:21.621Z,97076.88
2023-01-19T17:56:51.006Z,97082.84
2023-01-19T17:59:20.190Z,97087.63
2023-01-19T18:01:49.546Z,97088.66
2023-01-19T18:04:18.793Z,97090.78
2023-01-19T18:06:49.141Z,97087.22
2023-01-19T18:09:18.368Z,97098.34
2023-01-19T18:11:47.584Z,97094.38
2023-01-19T18:14:16.852Z,97101.16
2023-01-19T18:16:46.119Z,97111.13
2023-01-19T18:19:15.457Z,97117.31
2023-01-19T18:21:44.642Z,97114.56
2023-01-19T18:24:13.894Z,97116.69
2023-01-19T18:26:43.215Z,97116.06
2023-01-19T18:29:12.449Z,97126.22
2023-01-19T18:31:42.878Z,97126.84
2023-01-19T18:34:12.331Z,97130.59
2023-01-19T18:36:41.550Z,97146.13
2023-01-19T18:39:11.037Z,97158.88
2023-01-19T18:41:42.864Z,97163.81
2023-01-19T18:44:12.576Z,97164.38
2023-01-19T18:46:41.892Z,97165.56
2023-01-19T18:49:11.168Z,97169.47
2023-01-19T18:51:41.594Z,97177.97
2023-01-19T18:54:11.624Z,97182.56
2023-01-19T18:56:40.875Z,97174.97
2023-01-19T18:59:10.744Z,97178.91
2023-01-19T19:01:40.327Z,97188.09
2023-01-19T19:04:09.707Z,97192.47
2023-01-19T19:06:38.923Z,97185.47
2023-01-19T19:09:09.168Z,97187.66
2023-01-19T19:11:38.459Z,97185.66
2023-01-19T19:14:07.753Z,97190.03
2023-01-19T19:16:39.466Z,97181.28
2023-01-19T19:19:11.907Z,97189.66
2023-01-19T19:21:42.468Z,97188.47
2023-01-19T19:24:13.491Z,97177.94
2023-01-19T19:26:42.746Z,97176.16
2023-01-19T19:29:12.259Z,97175.34
2023-01-19T19:31:41.652Z,97158.56
2023-01-19T19:34:12.521Z,97165.97
2023-01-19T19:36:42.168Z,97165.78
2023-01-19T19:39:11.410Z,97177.72
2023-01-19T19:41:40.608Z,97174.94
2023-01-19T19:44:12.953Z,97174.31
2023-01-19T19:46:42.322Z,97174.06
2023-01-19T19:49:11.547Z,97189.22
2023-01-19T19:51:40.847Z,97186.81
2023-01-19T19:54:10.071Z,97191.19
2023-01-19T19:56:39.379Z,97195.94
2023-01-19T19:59:08.680Z,97210.66
2023-01-19T20:01:38.571Z,97215.81
2023-01-19T20:04:12.101Z,97226.94
2023-01-19T20:06:44.794Z,97225.34
2023-01-19T20:09:16.542Z,97234.09
2023-01-19T20:11:46.806Z,97232.94
2023-01-19T20:14:16.364Z,97233.66
2023-01-19T20:16:45.731Z,97251.38
2023-01-19T20:19:15.083Z,97245.88
2023-01-19T20:21:44.399Z,97259.38
2023-01-19T20:24:17.946Z,97267.94
2023-01-19T20:26:53.031Z,97262.94
2023-01-19T20:29:22.391Z,97265.47
2023-01-19T20:31:56.399Z,97263.69
2023-01-19T20:34:32.812Z,97265.03
2023-01-19T20:37:04.740Z,97257.66
2023-01-19T20:39:35.463Z,97265.81
2023-01-19T20:42:06.440Z,97278.31
2023-01-19T20:44:35.756Z,97276.91
2023-01-19T20:47:06.719Z,97281.88
2023-01-19T20:49:39.365Z,97284.69
2023-01-19T20:52:08.701Z,97296.88
2023-01-19T20:54:39.755Z,97293.69
2023-01-19T20:57:09.060Z,97298.88
2023-01-19T20:59:38.941Z,97305.81
2023-01-19T21:02:12.579Z,97297.16
2023-01-19T21:04:42.067Z,97292.47
2023-01-19T21:07:11.474Z,97294.94
2023-01-19T21:09:40.785Z,97292.19
2023-01-19T21:12:10.058Z,97308.09
2023-01-19T21:14:40.211Z,97304.53
2023-01-19T21:17:09.534Z,97305.78
2023-01-19T21:19:38.728Z,97309.53
2023-01-19T21:22:08.087Z,97308.91
2023-01-19T21:24:37.557Z,97304.31
2023-01-19T21:27:06.878Z,97305.28
2023-01-19T21:29:36.100Z,97314.63
2023-01-19T21:32:05.656Z,97323.38
2023-01-19T21:34:35.050Z,97322.41
2023-01-19T21:37:04.299Z,97315.84
2023-01-19T21:39:33.487Z,97328.97
2023-01-19T21:42:02.805Z,97327.78
2023-01-19T21:44:32.131Z,97324.06
2023-01-19T21:47:01.342Z,97323.88
2023-01-19T21:49:30.985Z,97329.63
2023-01-19T21:52:00.457Z,97334.00
2023-01-19T21:54:29.636Z,97328.03
2023-01-19T21:57:00.215Z,97340.06
2023-01-19T21:59:29.708Z,97340.84
2023-01-19T22:01:59.175Z,97336.91
2023-01-19T22:04:28.557Z,97331.75
2023-01-19T22:06:57.729Z,97339.31
2023-01-19T22:09:26.992Z,97330.88
2023-01-19T22:11:57.278Z,97346.41
2023-01-19T22:14:26.737Z,97338.69
2023-01-19T22:16:56.076Z,97332.91
2023-01-19T22:19:25.472Z,97347.59
2023-01-19T22:21:54.780Z,97349.22
2023-01-19T22:24:24.065Z,97350.88
2023-01-19T22:26:53.246Z,97348.50
2023-01-19T22:29:22.411Z,97358.22
2023-01-19T22:31:52.395Z,97360.78
2023-01-19T22:34:21.735Z,97369.78
2023-01-19T22:36:51.008Z,97366.19
2023-01-19T22:39:20.202Z,97361.50
2023-01-19T22:41:49.442Z,97369.09
2023-01-19T22:44:22.056Z,97374.72
2023-01-19T22:46:55.969Z,97371.16
2023-01-19T22:49:25.217Z,97364.38
2023-01-19T22:51:54.975Z,97363.22
2023-01-19T22:54:24.281Z,97350.06
2023-01-19T22:56:53.531Z,97356.47
2023-01-19T22:59:22.777Z,97359.88
2023-01-19T23:01:52.257Z,97368.44
2023-01-19T23:04:21.623Z,97383.78
2023-01-19T23:06:51.933Z,97390.03
2023-01-19T23:09:22.203Z,97402.88
2023-01-19T23:11:51.444Z,97406.03
2023-01-19T23:14:22.242Z,97392.22
2023-01-19T23:16:51.718Z,97385.63
2023-01-19T23:19:21.095Z,97378.16
2023-01-19T23:21:53.760Z,97380.53
2023-01-19T23:24:23.033Z,97379.38
2023-01-19T23:26:52.436Z,97379.63
2023-01-19T23:29:21.650Z,97374.72
2023-01-19T23:31:50.962Z,97379.06
2023-01-19T23:34:20.233Z,97379.06
2023-01-19T23:36:49.424Z,97374.72
2023-01-19T23:39:21.988Z,97375.94
2023-01-19T23:41:51.437Z,97373.34
2023-01-19T23:44:20.705Z,97373.16
2023-01-19T23:46:50.166Z,97372.00
2023-01-19T23:49:19.700Z,97379.75
2023-01-19T23:51:48.900Z,97377.28
2023-01-19T23:54:18.230Z,97375.00
2023-01-19T23:56:47.478Z,97369.31
2023-01-19T23:59:16.822Z,97375.38
